createdAt,value
2018-12-26T00:01:30.665Z,4.93
2018-12-26T00:04:13.796Z,4.50
2018-12-26T00:06:50.567Z,5.47
2018-12-26T00:09:28.780Z,4.83
2018-12-26T00:12:08.623Z,4.47
2018-12-26T00:14:48.060Z,4.30
2018-12-26T00:17:30.167Z,4.37
2018-12-26T00:20:04.731Z,2.80
2018-12-26T00:22:47.187Z,3.05
2018-12-26T00:25:26.655Z,3.80
2018-12-26T00:28:07.612Z,3.00
2018-12-26T00:30:46.607Z,3.60
2018-12-26T00:33:22.799Z,3.33
2018-12-26T00:36:05.411Z,3.92
2018-12-26T00:38:41.156Z,3.97
2018-12-26T00:41:18.751Z,3.40
2018-12-26T00:43:54.510Z,3.40
2018-12-26T00:46:30.979Z,4.00
2018-12-26T00:49:07.652Z,3.33
2018-12-26T00:51:47.195Z,3.77
2018-12-26T00:54:22.015Z,4.15
2018-12-26T00:56:57.679Z,4.47
2018-12-26T00:59:35.268Z,3.77
2018-12-26T01:02:10.716Z,3.93
2018-12-26T01:04:50.463Z,3.60
2018-12-26T01:07:28.977Z,3.23
2018-12-26T01:10:05.643Z,3.30
2018-12-26T01:12:42.215Z,3.70
2018-12-26T01:15:26.886Z,4.30
2018-12-26T01:18:02.734Z,4.53
2018-12-26T01:20:37.258Z,4.03
2018-12-26T01:23:14.955Z,2.83
2018-12-26T01:25:53.471Z,3.10
2018-12-26T01:28:29.231Z,2.73
2018-12-26T01:31:05.899Z,2.97
2018-12-26T01:33:45.547Z,3.07
2018-12-26T01:36:24.055Z,3.30
2018-12-26T01:39:00.835Z,3.90
2018-12-26T01:41:40.579Z,4.17
2018-12-26T01:44:16.123Z,3.10
2018-12-26T01:46:51.263Z,2.67
2018-12-26T01:49:28.338Z,4.35
2018-12-26T01:52:05.942Z,3.83
2018-12-26T01:54:41.586Z,7.03
2018-12-26T01:57:23.178Z,6.83
2018-12-26T01:59:58.822Z,8.18
2018-12-26T02:02:38.271Z,5.67
2018-12-26T02:05:15.047Z,3.62
2018-12-26T02:07:51.719Z,2.87
2018-12-26T02:10:30.131Z,2.67
2018-12-26T02:13:07.922Z,3.27
2018-12-26T02:17:12.164Z,2.80
2018-12-26T02:19:48.630Z,2.17
2018-12-26T02:22:26.215Z,3.33
2018-12-26T02:25:05.046Z,2.10
2018-12-26T02:27:40.490Z,2.80
2018-12-26T02:30:19.005Z,2.77
2018-12-26T02:33:03.674Z,2.83
2018-12-26T02:35:40.438Z,3.07
2018-12-26T02:38:25.107Z,2.87
2018-12-26T02:41:07.006Z,3.10
2018-12-26T02:43:42.207Z,3.00
2018-12-26T02:46:18.915Z,2.15
2018-12-26T02:48:58.656Z,3.00
2018-12-26T02:51:37.170Z,3.03
2018-12-26T02:54:19.689Z,2.67
2018-12-26T02:56:57.482Z,3.47
2018-12-26T02:59:34.262Z,2.50
2018-12-26T03:02:09.403Z,2.87
2018-12-26T03:04:45.050Z,3.00
2018-12-26T03:07:23.875Z,2.90
2018-12-26T03:10:01.068Z,2.83
2018-12-26T03:12:39.362Z,2.03
2018-12-26T03:15:23.319Z,2.37
2018-12-26T03:19:30.709Z,2.47
2018-12-26T03:22:07.806Z,2.20
2018-12-26T03:24:43.242Z,2.20
2018-12-26T03:28:49.926Z,1.80
2018-12-26T03:31:27.931Z,2.03
2018-12-26T03:34:12.605Z,1.65
2018-12-26T03:36:50.082Z,2.10
2018-12-26T03:39:31.085Z,1.90
2018-12-26T03:42:06.505Z,1.80
2018-12-26T03:44:44.098Z,1.93
2018-12-26T03:47:20.774Z,2.17
2018-12-26T03:49:59.361Z,1.90
2018-12-26T03:52:33.819Z,1.90
2018-12-26T03:55:09.658Z,2.33
2018-12-26T04:00:30.897Z,1.87
2018-12-26T04:03:12.483Z,1.75
2018-12-26T04:05:48.238Z,2.10
2018-12-26T04:08:23.065Z,2.30
2018-12-26T04:11:00.458Z,1.40
2018-12-26T04:13:38.973Z,2.23
2018-12-26T04:16:16.569Z,1.92
2018-12-26T04:18:57.546Z,1.67
2018-12-26T04:21:36.061Z,2.43
2018-12-26T04:24:13.652Z,1.90
2018-12-26T04:26:50.434Z,2.10
2018-12-26T04:29:27.721Z,2.27
2018-12-26T04:32:07.469Z,2.47
2018-12-26T04:34:49.974Z,2.17
2018-12-26T04:37:26.645Z,2.40
2018-12-26T04:40:06.785Z,2.23
2018-12-26T04:42:42.249Z,2.03
2018-12-26T04:45:20.762Z,2.00
2018-12-26T04:48:03.689Z,2.00
2018-12-26T04:50:41.589Z,2.47
2018-12-26T04:53:18.457Z,2.00
2018-12-26T04:55:56.370Z,1.87
2018-12-26T04:58:32.842Z,1.90
2018-12-26T05:01:15.345Z,2.13
2018-12-26T05:03:57.245Z,2.10
2018-12-26T05:06:47.220Z,1.87
2018-12-26T05:09:24.209Z,1.50
2018-12-26T05:12:01.873Z,2.23
2018-12-26T05:14:38.785Z,2.03
2018-12-26T05:17:14.233Z,1.57
2018-12-26T05:19:53.771Z,1.85
2018-12-26T05:22:34.040Z,2.10
2018-12-26T05:25:11.113Z,1.83
2018-12-26T05:27:49.012Z,1.72
2018-12-26T05:30:26.610Z,1.97
2018-12-26T05:33:07.881Z,1.90
2018-12-26T05:35:45.485Z,1.67
2018-12-26T05:38:22.471Z,1.47
2018-12-26T05:41:04.972Z,1.87
2018-12-26T05:43:40.627Z,1.83
2018-12-26T05:46:20.372Z,1.57
2018-12-26T05:49:04.000Z,1.93
2018-12-26T05:51:42.834Z,2.50
2018-12-26T05:54:25.446Z,3.08
2018-12-26T05:57:02.836Z,2.17
2018-12-26T05:59:47.492Z,2.55
2018-12-26T06:02:24.165Z,2.65
2018-12-26T06:05:01.767Z,2.20
2018-12-26T06:07:37.516Z,2.05
2018-12-26T06:10:15.105Z,2.37
2018-12-26T06:12:51.780Z,2.27
2018-12-26T06:15:26.792Z,1.77
2018-12-26T06:18:08.357Z,1.90
2018-12-26T06:20:44.568Z,3.10
2018-12-26T06:23:21.245Z,2.33
2018-12-26T06:25:58.832Z,2.37
2018-12-26T06:28:37.656Z,2.30
2018-12-26T06:31:16.591Z,2.10
2018-12-26T06:33:59.816Z,1.95
2018-12-26T06:36:36.484Z,2.17
2018-12-26T06:39:13.976Z,2.40
2018-12-26T06:41:52.800Z,2.10
2018-12-26T06:44:29.480Z,2.00
2018-12-26T06:47:12.908Z,2.20
2018-12-26T06:49:50.511Z,1.90
2018-12-26T06:52:31.184Z,1.92
2018-12-26T06:55:08.971Z,1.53
2018-12-26T06:57:47.483Z,1.80
2018-12-26T07:00:29.179Z,2.10
2018-12-26T07:03:04.933Z,2.30
2018-12-26T07:05:49.600Z,2.22
2018-12-26T07:08:32.103Z,2.17
2018-12-26T07:11:08.780Z,2.50
2018-12-26T07:13:46.831Z,2.60
2018-12-26T07:16:27.964Z,3.10
2018-12-26T07:19:04.947Z,2.30
2018-12-26T07:21:47.982Z,3.98
2018-12-26T07:24:26.068Z,4.50
2018-12-26T07:27:05.715Z,4.25
2018-12-26T07:29:43.672Z,4.37
2018-12-26T07:32:20.906Z,7.17
2018-12-26T07:35:02.967Z,4.47
2018-12-26T07:37:44.612Z,3.58
2018-12-26T07:40:27.812Z,3.05
2018-12-26T07:43:05.418Z,3.27
2018-12-26T07:45:43.016Z,2.73
2018-12-26T07:48:28.897Z,3.07
2018-12-26T07:51:03.423Z,2.97
2018-12-26T07:53:45.014Z,3.12
2018-12-26T07:56:25.983Z,2.80
2018-12-26T07:59:10.783Z,3.10
2018-12-26T08:01:51.099Z,2.87
2018-12-26T08:04:33.623Z,2.70
2018-12-26T08:07:12.239Z,2.40
2018-12-26T08:09:51.988Z,3.08
2018-12-26T08:12:38.591Z,3.12
2018-12-26T08:15:21.703Z,2.55
2018-12-26T08:17:58.898Z,4.10
2018-12-26T08:20:38.653Z,2.37
2018-12-26T08:23:17.571Z,2.50
2018-12-26T08:25:53.935Z,2.80
2018-12-26T08:28:34.708Z,3.00
2018-12-26T08:31:18.143Z,3.15
2018-12-26T08:34:01.871Z,2.33
2018-12-26T08:36:37.323Z,2.35
2018-12-26T08:39:15.231Z,2.40
2018-12-26T08:41:59.891Z,3.03
2018-12-26T08:44:38.407Z,2.30
2018-12-26T08:47:20.919Z,2.90
2018-12-26T08:50:00.664Z,4.05
2018-12-26T08:52:37.127Z,4.45
2018-12-26T08:55:21.519Z,4.92
2018-12-26T08:58:01.851Z,5.67
2018-12-26T09:00:43.428Z,4.37
2018-12-26T09:03:23.787Z,4.47
2018-12-26T09:06:04.759Z,5.03
2018-12-26T09:08:45.747Z,5.15
2018-12-26T09:11:28.971Z,3.80
2018-12-26T09:14:06.659Z,4.43
2018-12-26T09:16:45.479Z,4.20
2018-12-26T09:19:25.022Z,4.60
2018-12-26T09:22:08.458Z,4.70
2018-12-26T09:24:48.694Z,4.47
2018-12-26T09:27:25.894Z,4.03
2018-12-26T09:30:07.494Z,3.60
2018-12-26T09:32:47.342Z,3.83
2018-12-26T09:35:23.704Z,3.57
2018-12-26T09:38:03.450Z,3.47
2018-12-26T09:40:43.199Z,4.95
2018-12-26T09:43:21.610Z,4.15
2018-12-26T09:45:59.509Z,4.13
2018-12-26T09:48:42.017Z,4.50
2018-12-26T09:51:21.773Z,4.47
2018-12-26T09:54:00.085Z,5.17
2018-12-26T09:56:38.086Z,5.30
2018-12-26T09:59:18.849Z,4.10
2018-12-26T10:01:57.365Z,4.97
2018-12-26T10:04:36.809Z,4.22
2018-12-26T10:07:14.406Z,6.25
2018-12-26T10:09:55.172Z,4.65
2018-12-26T10:12:33.688Z,6.45
2018-12-26T10:15:10.265Z,5.72
2018-12-26T10:17:48.776Z,4.37
2018-12-26T10:20:26.681Z,4.58
2018-12-26T10:23:03.344Z,4.42
2018-12-26T10:25:49.960Z,4.78
2018-12-26T10:28:32.045Z,3.85
2018-12-26T10:31:16.313Z,4.03
2018-12-26T10:33:56.977Z,5.00
2018-12-26T10:36:40.620Z,3.55
2018-12-26T10:39:22.656Z,3.42
2018-12-26T10:42:03.893Z,3.52
2018-12-26T10:44:44.769Z,3.15
2018-12-26T10:47:22.077Z,3.35
2018-12-26T10:50:03.953Z,3.60
2018-12-26T10:52:43.869Z,3.40
2018-12-26T10:55:31.561Z,3.70
2018-12-26T10:58:08.412Z,3.50
2018-12-26T11:00:46.313Z,3.40
2018-12-26T11:03:23.904Z,3.92
2018-12-26T11:06:08.569Z,3.12
2018-12-26T11:08:47.385Z,3.27
2018-12-26T11:11:32.400Z,3.10
2018-12-26T11:14:10.032Z,3.62
2018-12-26T11:16:52.256Z,2.90
2018-12-26T11:19:31.997Z,3.75
2018-12-26T11:22:12.776Z,3.85
2018-12-26T11:24:51.912Z,3.62
2018-12-26T11:27:30.945Z,4.15
2018-12-26T11:30:11.603Z,3.90
2018-12-26T11:32:54.216Z,3.62
2018-12-26T11:35:40.237Z,4.22
2018-12-26T11:38:19.337Z,3.47
2018-12-26T11:41:00.001Z,3.60
2018-12-26T11:43:36.989Z,3.52
2018-12-26T11:46:19.297Z,2.70
2018-12-26T11:48:52.897Z,3.40
2018-12-26T11:51:27.721Z,3.98
2018-12-26T11:54:05.014Z,4.12
2018-12-26T11:56:46.809Z,4.10
2018-12-26T11:59:28.701Z,3.70
2018-12-26T12:02:08.237Z,4.33
2018-12-26T12:04:47.241Z,3.80
2018-12-26T12:07:29.373Z,4.10
2018-12-26T12:10:09.109Z,5.05
2018-12-26T12:12:48.860Z,4.47
2018-12-26T12:15:28.828Z,4.50
2018-12-26T12:18:05.792Z,4.25
2018-12-26T12:20:43.692Z,3.17
2018-12-26T12:23:22.320Z,2.92
2018-12-26T12:26:04.384Z,3.33
2018-12-26T12:28:45.493Z,3.55
2018-12-26T12:31:26.661Z,3.20
2018-12-26T12:34:09.797Z,3.22
2018-12-26T12:36:45.452Z,3.47
2018-12-26T12:39:28.172Z,3.85
2018-12-26T12:42:09.861Z,3.33
2018-12-26T12:44:50.889Z,2.87
2018-12-26T12:47:34.052Z,3.00
2018-12-26T12:50:13.501Z,3.05
2018-12-26T12:52:52.321Z,3.22
2018-12-26T12:55:31.133Z,3.67
2018-12-26T12:58:09.569Z,3.17
2018-12-26T13:00:53.300Z,4.15
2018-12-26T13:03:30.078Z,3.42
2018-12-26T13:06:13.032Z,3.58
2018-12-26T13:08:54.691Z,4.05
2018-12-26T13:11:33.708Z,3.90
2018-12-26T13:14:10.973Z,4.28
2018-12-26T13:16:51.464Z,5.65
2018-12-26T13:19:28.947Z,3.80
2018-12-26T13:22:08.388Z,4.30
2018-12-26T13:24:47.207Z,2.92
2018-12-26T13:27:25.731Z,4.12
2018-12-26T13:30:07.531Z,4.00
2018-12-26T13:32:48.799Z,4.90
2018-12-26T13:35:28.559Z,4.20
2018-12-26T13:38:08.499Z,4.25
2018-12-26T13:40:49.051Z,6.15
2018-12-26T13:43:29.740Z,5.87
2018-12-26T13:46:13.167Z,6.20
2018-12-26T13:48:53.831Z,5.50
2018-12-26T13:51:34.183Z,4.60
2018-12-26T13:57:00.847Z,4.08
2018-12-26T13:59:47.959Z,4.60
2018-12-26T14:02:27.003Z,7.17
2018-12-26T14:05:04.895Z,7.25
2018-12-26T14:07:40.339Z,5.53
2018-12-26T14:10:20.091Z,6.97
2018-12-26T14:12:57.371Z,7.92
2018-12-26T14:15:36.095Z,4.97
2018-12-26T14:18:13.695Z,5.72
2018-12-26T14:20:56.810Z,6.35
2018-12-26T14:23:36.251Z,6.20
2018-12-26T14:26:19.071Z,7.33
2018-12-26T14:28:54.527Z,6.25
2018-12-26T14:31:33.343Z,8.15
2018-12-26T14:34:13.703Z,6.00
2018-12-26T14:36:55.595Z,6.53
2018-12-26T14:39:31.356Z,5.95
2018-12-26T14:42:10.479Z,5.00
2018-12-26T14:44:48.690Z,5.07
2018-12-26T14:47:27.819Z,5.45
2018-12-26T14:50:07.672Z,7.33
2018-12-26T14:52:44.655Z,6.80
2018-12-26T14:55:20.811Z,6.60
2018-12-26T14:58:07.624Z,6.95
2018-12-26T15:00:49.663Z,6.70
2018-12-26T15:03:27.738Z,9.63
2018-12-26T15:06:03.482Z,13.03
2018-12-26T15:08:47.522Z,7.53
2018-12-26T15:11:23.793Z,7.53
2018-12-26T15:14:02.310Z,6.80
2018-12-26T15:16:44.207Z,8.70
2018-12-26T15:19:31.630Z,8.78
2018-12-26T15:22:16.290Z,8.03
2018-12-26T15:24:58.189Z,9.27
2018-12-26T15:27:38.854Z,10.13
2018-12-26T15:30:28.416Z,8.90
2018-12-26T15:33:01.925Z,9.70
2018-12-26T15:35:40.706Z,8.33
2018-12-26T15:38:23.269Z,8.33
2018-12-26T15:40:59.638Z,9.00
2018-12-26T15:50:39.322Z,9.13
2018-12-26T15:53:17.733Z,9.33
2018-12-26T15:55:58.409Z,8.87
2018-12-26T15:58:37.229Z,7.62
2018-12-26T16:01:16.457Z,9.53
2018-12-26T16:03:56.401Z,7.47
2018-12-26T16:06:36.157Z,9.33
2018-12-26T16:09:18.657Z,9.40
2018-12-26T16:11:58.513Z,11.80
2018-12-26T16:14:37.022Z,10.90
2018-12-26T16:17:16.569Z,11.03
2018-12-26T16:19:57.237Z,10.20
2018-12-26T16:22:39.709Z,9.43
2018-12-26T16:25:22.773Z,11.67
2018-12-26T16:28:00.064Z,11.87
2018-12-26T16:30:46.258Z,11.30
2018-12-26T16:33:30.072Z,9.53
2018-12-26T16:36:10.353Z,9.63
2018-12-26T16:38:50.821Z,10.60
2018-12-26T16:41:19.961Z,12.30
2018-12-26T16:43:49.348Z,11.97
2018-12-26T16:46:18.345Z,11.33
2018-12-26T16:48:53.865Z,10.70
2018-12-26T16:51:29.602Z,9.37
2018-12-26T16:54:07.105Z,9.77
2018-12-26T16:56:44.697Z,10.67
2018-12-26T16:59:24.437Z,12.57
2018-12-26T17:02:02.991Z,12.33
2018-12-26T17:04:43.832Z,11.40
2018-12-26T20:44:15.836Z,7.97
2018-12-26T20:46:44.322Z,7.70
2018-12-26T20:49:12.864Z,7.80
2018-12-26T20:51:41.711Z,7.30
2018-12-26T20:54:10.161Z,7.37
2018-12-26T20:56:38.659Z,7.27
2018-12-26T20:59:08.460Z,6.73
2018-12-26T21:01:37.485Z,7.93
2018-12-26T21:04:06.319Z,7.33
2018-12-26T21:06:34.875Z,6.87
2018-12-26T21:09:03.661Z,7.27
2018-12-26T21:11:32.263Z,7.07
2018-12-26T21:14:00.840Z,6.63
2018-12-26T21:16:29.363Z,6.73
2018-12-26T21:18:57.948Z,6.73
2018-12-26T21:21:26.543Z,6.63
2018-12-26T21:23:55.119Z,7.23
2018-12-26T21:26:23.978Z,6.37
2018-12-26T21:29:06.765Z,7.53
2018-12-26T21:31:39.928Z,6.80
2018-12-26T21:34:08.543Z,6.67
2018-12-26T21:36:37.647Z,8.03
2018-12-26T21:39:07.599Z,7.13
2018-12-26T21:41:36.267Z,7.10
2018-12-26T21:44:04.874Z,7.67
2018-12-26T21:46:33.499Z,6.63
2018-12-26T21:49:03.020Z,6.60
2018-12-26T21:51:31.607Z,5.93
2018-12-26T21:54:00.203Z,6.00
2018-12-26T21:56:28.871Z,6.70
2018-12-26T21:58:57.634Z,6.13
2018-12-26T22:01:26.401Z,6.50
2018-12-26T22:03:55.247Z,6.37
2018-12-26T22:06:23.963Z,6.05
2018-12-26T22:08:54.719Z,5.77
2018-12-26T22:11:23.362Z,6.40
2018-12-26T22:13:52.399Z,6.53
2018-12-26T22:16:21.179Z,7.25
2018-12-26T22:18:50.147Z,6.57
2018-12-26T22:21:18.943Z,5.63
2018-12-26T22:23:47.748Z,5.97
2018-12-26T22:26:17.002Z,6.97
2018-12-26T22:28:45.654Z,6.53
2018-12-26T22:31:14.611Z,6.10
2018-12-26T22:33:43.364Z,6.77
2018-12-26T22:36:12.104Z,7.00
2018-12-26T22:38:41.030Z,7.10
2018-12-26T22:41:10.243Z,6.47
2018-12-26T22:43:38.986Z,7.28
2018-12-26T22:46:07.754Z,6.43
2018-12-26T22:48:36.489Z,6.47
2018-12-26T22:51:05.285Z,7.10
2018-12-26T22:53:34.078Z,7.17
2018-12-26T22:56:02.715Z,6.87
2018-12-26T22:58:31.404Z,6.63
2018-12-26T23:01:00.277Z,6.73
2018-12-26T23:03:29.221Z,6.33
2018-12-26T23:05:58.253Z,6.50
2018-12-26T23:08:27.337Z,5.97
2018-12-26T23:10:56.721Z,6.70
2018-12-26T23:13:26.405Z,6.10
2018-12-26T23:15:55.375Z,6.00
2018-12-26T23:18:26.217Z,6.50
2018-12-26T23:20:55.177Z,7.10
2018-12-26T23:23:24.789Z,6.92
2018-12-26T23:25:53.582Z,7.45
2018-12-26T23:28:22.389Z,7.17
2018-12-26T23:30:51.616Z,8.53
2018-12-26T23:33:20.453Z,8.60
2018-12-26T23:35:49.278Z,8.60
2018-12-26T23:38:18.213Z,6.90
2018-12-26T23:40:47.245Z,8.37
2018-12-26T23:43:16.885Z,8.00
2018-12-26T23:45:45.632Z,8.70
2018-12-26T23:48:15.661Z,8.40
2018-12-26T23:50:44.668Z,8.43
2018-12-26T23:53:13.296Z,9.33
2018-12-26T23:55:42.561Z,10.07
2018-12-26T23:58:11.357Z,8.80
